createdAt,value
2022-09-14T00:00:24.550Z,98387.65
2022-09-14T00:01:25.645Z,98389.56
2022-09-14T00:01:59.097Z,98391.45
2022-09-14T00:02:31.138Z,98386.91
2022-09-14T00:03:03.119Z,98388.34
2022-09-14T00:03:35.008Z,98389.29
2022-09-14T00:04:12.949Z,98389.34
2022-09-14T00:04:44.790Z,98387.13
2022-09-14T00:05:16.545Z,98384.25
2022-09-14T00:05:48.871Z,98379.06
2022-09-14T00:06:20.893Z,98379.09
2022-09-14T00:06:52.650Z,98381.70
2022-09-14T00:07:24.444Z,98381.10
2022-09-14T00:07:56.251Z,98381.19
2022-09-14T00:08:27.991Z,98378.06
2022-09-14T00:09:01.146Z,98380.63
2022-09-14T00:09:33.674Z,98378.45
2022-09-14T00:10:06.327Z,98376.45
2022-09-14T00:10:43.137Z,98375.80
2022-09-14T00:11:15.587Z,98374.42
2022-09-14T00:11:47.893Z,98375.75
2022-09-14T00:12:19.674Z,98370.52
2022-09-14T00:12:51.523Z,98375.06
2022-09-14T00:13:23.331Z,98376.34
2022-09-14T00:13:56.615Z,98374.32
2022-09-14T00:14:28.400Z,98376.48
2022-09-14T00:15:00.666Z,98370.98
2022-09-14T00:15:37.018Z,98373.78
2022-09-14T00:16:24.210Z,98375.16
2022-09-14T00:16:56.076Z,98368.63
2022-09-14T00:17:27.761Z,98371.61
2022-09-14T00:17:59.454Z,98371.48
2022-09-14T00:18:32.760Z,98371.48
2022-09-14T00:19:25.809Z,98368.89
2022-09-14T00:19:57.683Z,98373.16
2022-09-14T00:20:30.194Z,98371.71
2022-09-14T00:21:03.889Z,98370.17
2022-09-14T00:21:38.253Z,98370.20
2022-09-14T00:22:10.062Z,98367.24
2022-09-14T00:22:41.751Z,98364.02
2022-09-14T00:23:13.407Z,98364.52
2022-09-14T00:23:45.274Z,98363.50
2022-09-14T00:24:17.305Z,98358.61
2022-09-14T00:24:49.026Z,98364.55
2022-09-14T00:25:20.731Z,98359.98
2022-09-14T00:25:52.539Z,98364.59
2022-09-14T00:26:25.270Z,98361.32
2022-09-14T00:26:57.136Z,98361.32
2022-09-14T00:27:28.785Z,98361.55
2022-09-14T00:28:00.967Z,98357.85
2022-09-14T00:29:04.132Z,98360.29
2022-09-14T00:29:36.269Z,98351.16
2022-09-14T00:30:08.638Z,98356.55
2022-09-14T00:30:41.815Z,98354.75
2022-09-14T00:31:14.669Z,98353.70
2022-09-14T00:31:46.517Z,98353.43
2022-09-14T00:32:18.306Z,98352.16
2022-09-14T00:32:51.300Z,98350.99
2022-09-14T00:33:22.985Z,98354.65
2022-09-14T00:33:54.701Z,98349.94
2022-09-14T00:34:27.054Z,98350.01
2022-09-14T00:34:58.668Z,98350.42
2022-09-14T00:35:30.403Z,98350.22
2022-09-14T00:36:10.981Z,98356.19
2022-09-14T00:36:45.879Z,98351.80
2022-09-14T00:37:17.655Z,98352.54
2022-09-14T00:37:50.763Z,98350.91
2022-09-14T00:38:26.004Z,98351.27
2022-09-14T00:39:00.118Z,98349.69
2022-09-14T00:39:31.920Z,98353.83
2022-09-14T00:40:05.640Z,98351.27
2022-09-14T00:40:38.804Z,98350.63
2022-09-14T00:41:14.600Z,98345.50
2022-09-14T00:41:48.213Z,98345.92
2022-09-14T00:42:20.729Z,98347.04
2022-09-14T00:42:52.641Z,98339.78
2022-09-14T00:43:24.571Z,98342.31
2022-09-14T00:44:02.876Z,98337.71
2022-09-14T00:44:34.505Z,98337.98
2022-09-14T00:45:21.526Z,98336.48
2022-09-14T00:45:53.431Z,98334.54
2022-09-14T00:46:27.374Z,98333.98
2022-09-14T00:47:02.333Z,98332.43
2022-09-14T00:47:35.059Z,98330.94
2022-09-14T00:48:07.480Z,98334.80
2022-09-14T00:48:39.191Z,98330.92
2022-09-14T00:49:38.985Z,98330.66
2022-09-14T00:50:11.238Z,98332.40
2022-09-14T00:50:44.023Z,98328.64
2022-09-14T00:51:18.087Z,98326.27
2022-09-14T00:52:08.380Z,98325.73
2022-09-14T00:52:44.170Z,98331.00
2022-09-14T00:53:15.997Z,98326.41
2022-09-14T00:53:48.339Z,98330.11
2022-09-14T00:54:20.554Z,98325.20
2022-09-14T00:54:52.166Z,98329.19
2022-09-14T00:55:24.412Z,98325.67
2022-09-14T00:55:56.388Z,98325.91
2022-09-14T00:56:28.737Z,98327.48
2022-09-14T00:57:03.556Z,98331.76
2022-09-14T00:57:43.407Z,98326.37
2022-09-14T00:58:15.431Z,98326.38
2022-09-14T00:58:50.714Z,98327.37
2022-09-14T00:59:27.159Z,98324.86
2022-09-14T00:59:59.782Z,98326.77
2022-09-14T01:00:31.806Z,98331.59
2022-09-14T01:01:03.953Z,98330.55
2022-09-14T01:01:35.884Z,98330.98
2022-09-14T01:02:10.444Z,98329.92
2022-09-14T01:02:42.530Z,98327.60
2022-09-14T01:03:14.473Z,98330.61
2022-09-14T01:03:46.441Z,98329.88
2022-09-14T01:04:18.175Z,98327.71
2022-09-14T01:04:50.819Z,98325.97
2022-09-14T01:05:34.060Z,98323.28
2022-09-14T01:06:30.842Z,98329.21
2022-09-14T01:07:18.748Z,98330.89
2022-09-14T01:07:50.457Z,98326.52
2022-09-14T01:08:32.302Z,98325.92
2022-09-14T01:09:25.710Z,98326.49
2022-09-14T01:10:22.172Z,98325.25
2022-09-14T01:10:53.883Z,98325.25
2022-09-14T01:11:40.922Z,98323.76
2022-09-14T01:12:44.633Z,98324.23
2022-09-14T01:13:41.555Z,98327.36
2022-09-14T01:14:48.410Z,98323.46
2022-09-14T01:15:25.709Z,98323.70
2022-09-14T01:16:26.796Z,98327.65
2022-09-14T01:17:14.471Z,98326.56
2022-09-14T01:18:01.279Z,98322.79
2022-09-14T01:18:32.969Z,98320.23
2022-09-14T01:19:24.636Z,98321.77
2022-09-14T01:20:07.548Z,98322.83
2022-09-14T01:21:14.437Z,98319.39
2022-09-14T01:21:47.962Z,98319.83
2022-09-14T01:22:32.088Z,98317.84
2022-09-14T01:23:22.233Z,98316.26
2022-09-14T01:23:59.073Z,98314.86
2022-09-14T01:24:45.751Z,98317.13
2022-09-14T01:25:35.561Z,98313.52
2022-09-14T01:26:10.914Z,98315.44
2022-09-14T01:26:52.250Z,98316.14
2022-09-14T01:27:43.484Z,98314.74
2022-09-14T01:28:43.164Z,98311.63
2022-09-14T01:29:24.812Z,98311.33
2022-09-14T01:30:02.785Z,98309.58
2022-09-14T01:30:37.920Z,98308.73
2022-09-14T01:31:17.732Z,98310.95
2022-09-14T01:32:07.644Z,98309.16
2022-09-14T01:33:03.492Z,98315.27
2022-09-14T01:33:46.229Z,98312.95
2022-09-14T01:34:26.946Z,98312.61
2022-09-14T01:35:04.880Z,98314.08
2022-09-14T01:35:55.641Z,98313.98
2022-09-14T01:36:30.424Z,98311.80
2022-09-14T01:37:12.682Z,98311.30
2022-09-14T01:37:53.530Z,98311.64
2022-09-14T01:38:25.110Z,98313.30
2022-09-14T01:38:58.358Z,98310.42
2022-09-14T01:39:33.065Z,98312.69
2022-09-14T01:40:26.810Z,98314.14
2022-09-14T01:41:01.564Z,98316.17
2022-09-14T01:41:36.067Z,98314.58
2022-09-14T01:42:11.949Z,98311.80
2022-09-14T01:42:48.715Z,98315.42
2022-09-14T01:43:26.412Z,98317.09
2022-09-14T01:44:05.326Z,98317.16
2022-09-14T01:44:41.549Z,98318.74
2022-09-14T01:45:17.006Z,98316.23
2022-09-14T01:45:55.737Z,98317.80
2022-09-14T01:46:39.692Z,98315.40
2022-09-14T01:47:39.690Z,98315.19
2022-09-14T01:48:13.819Z,98316.29
2022-09-14T01:48:53.466Z,98319.23
2022-09-14T01:49:41.188Z,98318.29
2022-09-14T01:50:20.218Z,98315.20
2022-09-14T01:50:56.408Z,98316.31
2022-09-14T01:51:35.995Z,98315.25
2022-09-14T01:52:19.377Z,98310.66
2022-09-14T01:53:14.650Z,98312.31
2022-09-14T01:54:13.805Z,98311.71
2022-09-14T01:55:07.236Z,98311.85
2022-09-14T01:55:44.365Z,98310.05
2022-09-14T01:56:25.590Z,98310.78
2022-09-14T01:57:27.520Z,98310.46
2022-09-14T01:58:10.062Z,98310.45
2022-09-14T01:58:49.648Z,98310.95
2022-09-14T01:59:28.849Z,98313.27
2022-09-14T02:00:08.791Z,98305.75
2022-09-14T02:00:45.856Z,98307.38
2022-09-14T02:01:27.663Z,98307.75
2022-09-14T02:02:03.643Z,98304.52
2022-09-14T02:02:46.244Z,98307.63
2022-09-14T02:03:34.729Z,98305.14
2022-09-14T02:04:11.420Z,98302.34
2022-09-14T02:04:48.667Z,98300.91
2022-09-14T02:05:44.755Z,98302.92
2022-09-14T02:06:41.045Z,98302.98
2022-09-14T02:07:14.161Z,98297.11
2022-09-14T02:07:45.998Z,98294.67
2022-09-14T02:08:17.810Z,98296.31
2022-09-14T02:08:50.782Z,98293.58
2022-09-14T02:09:26.252Z,98296.80
2022-09-14T02:09:58.779Z,98299.36
2022-09-14T02:10:31.387Z,98302.09
2022-09-14T02:11:03.155Z,98298.90
2022-09-14T02:11:35.094Z,98300.13
2022-09-14T02:12:07.541Z,98297.23
2022-09-14T02:12:40.146Z,98298.30
2022-09-14T02:13:11.942Z,98296.88
2022-09-14T02:13:43.719Z,98298.73
2022-09-14T02:14:15.866Z,98302.77
2022-09-14T02:14:48.826Z,98300.13
2022-09-14T02:15:21.760Z,98301.10
2022-09-14T02:15:54.142Z,98302.64
2022-09-14T02:16:27.171Z,98299.38
2022-09-14T02:16:59.471Z,98300.17
2022-09-14T02:17:31.276Z,98297.22
2022-09-14T02:18:04.471Z,98301.40
2022-09-14T02:18:38.095Z,98295.01
2022-09-14T02:19:10.322Z,98296.23
2022-09-14T02:19:49.598Z,98292.83
2022-09-14T02:20:42.908Z,98292.30
2022-09-14T02:21:19.487Z,98295.70
2022-09-14T02:21:51.244Z,98301.17
2022-09-14T02:22:24.757Z,98302.59
2022-09-14T02:22:56.853Z,98296.73
2022-09-14T02:23:29.108Z,98298.57
2022-09-14T02:24:01.480Z,98298.08
2022-09-14T02:24:33.394Z,98298.86
2022-09-14T02:25:05.576Z,98292.81
2022-09-14T02:25:40.618Z,98295.41
2022-09-14T02:26:12.481Z,98294.80
2022-09-14T02:26:46.813Z,98297.17
2022-09-14T02:27:18.702Z,98290.20
2022-09-14T02:27:52.189Z,98296.41
2022-09-14T02:28:24.063Z,98293.20
2022-09-14T02:28:57.087Z,98290.48
2022-09-14T02:29:28.923Z,98285.61
2022-09-14T02:30:01.100Z,98284.69
2022-09-14T02:30:43.220Z,98287.42
2022-09-14T02:31:33.104Z,98282.11
2022-09-14T02:32:23.176Z,98287.09
2022-09-14T02:32:57.542Z,98288.48
2022-09-14T02:33:45.988Z,98282.88
2022-09-14T02:34:20.690Z,98284.01
2022-09-14T02:35:18.954Z,98283.42
2022-09-14T02:35:54.546Z,98282.40
2022-09-14T02:36:51.670Z,98282.33
2022-09-14T02:37:54.422Z,98285.98
2022-09-14T02:38:55.987Z,98286.54
2022-09-14T02:39:45.868Z,98281.41
2022-09-14T02:40:20.406Z,98287.40
2022-09-14T02:41:03.757Z,98289.45
2022-09-14T02:41:48.578Z,98286.54
2022-09-14T02:42:36.523Z,98279.55
2022-09-14T02:43:28.021Z,98275.66
2022-09-14T02:44:30.928Z,98276.48
2022-09-14T02:45:31.518Z,98280.75
2022-09-14T02:46:43.188Z,98281.15
2022-09-14T02:47:27.735Z,98279.88
2022-09-14T02:48:13.475Z,98283.19
2022-09-14T02:48:51.072Z,98280.90
2022-09-14T02:49:42.334Z,98283.27
2022-09-14T02:50:13.805Z,98286.17
2022-09-14T02:51:06.055Z,98283.36
2022-09-14T02:51:48.578Z,98282.02
2022-09-14T02:52:39.139Z,98283.29
2022-09-14T02:53:17.148Z,98282.32
2022-09-14T02:53:59.264Z,98276.85
2022-09-14T02:54:44.305Z,98278.89
2022-09-14T02:55:20.095Z,98277.50
2022-09-14T02:56:02.871Z,98275.55
2022-09-14T02:56:36.832Z,98277.71
2022-09-14T02:57:09.637Z,98279.66
2022-09-14T02:58:00.489Z,98277.18
2022-09-14T02:58:38.220Z,98276.23
2022-09-14T02:59:10.837Z,98278.70
2022-09-14T02:59:42.652Z,98277.36
2022-09-14T03:00:14.435Z,98274.52
2022-09-14T03:00:48.835Z,98272.95
2022-09-14T03:01:22.492Z,98270.30
2022-09-14T03:01:55.663Z,98275.86
2022-09-14T03:02:27.491Z,98271.67
2022-09-14T03:02:59.369Z,98275.03
2022-09-14T03:03:35.444Z,98277.26
2022-09-14T03:04:07.620Z,98276.95
2022-09-14T03:04:39.413Z,98275.47
2022-09-14T03:05:11.045Z,98275.17
2022-09-14T03:05:42.853Z,98274.88
2022-09-14T03:06:15.244Z,98273.20
2022-09-14T03:06:46.886Z,98275.43
2022-09-14T03:07:18.718Z,98274.65
2022-09-14T03:07:50.590Z,98276.56
2022-09-14T03:08:23.351Z,98271.39
2022-09-14T03:08:55.114Z,98272.30
2022-09-14T03:09:26.994Z,98271.30
2022-09-14T03:09:58.645Z,98273.20
2022-09-14T03:10:31.876Z,98271.73
2022-09-14T03:11:04.831Z,98269.50
2022-09-14T03:11:36.597Z,98275.07
2022-09-14T03:12:08.332Z,98271.77
2022-09-14T03:12:40.047Z,98272.84
2022-09-14T03:13:12.466Z,98269.83
2022-09-14T03:13:44.184Z,98270.40
2022-09-14T03:14:15.874Z,98271.82
2022-09-14T03:14:47.896Z,98269.30
2022-09-14T03:15:19.661Z,98271.94
2022-09-14T03:15:52.048Z,98272.42
2022-09-14T03:16:23.921Z,98271.79
2022-09-14T03:16:55.739Z,98273.41
2022-09-14T03:17:27.433Z,98275.58
2022-09-14T03:17:59.197Z,98272.45
2022-09-14T03:18:30.865Z,98270.71
2022-09-14T03:19:02.640Z,98269.91
2022-09-14T03:19:34.339Z,98268.13
2022-09-14T03:20:06.814Z,98267.79
2022-09-14T03:20:38.756Z,98266.71
2022-09-14T03:21:13.309Z,98264.61
2022-09-14T03:21:45.081Z,98265.27
2022-09-14T03:22:16.847Z,98261.68
2022-09-14T03:22:48.905Z,98263.83
2022-09-14T03:23:20.701Z,98261.55
2022-09-14T03:23:54.813Z,98264.89
2022-09-14T03:24:26.560Z,98265.23
2022-09-14T03:24:58.214Z,98260.11
2022-09-14T03:25:30.150Z,98262.65
2022-09-14T03:26:05.887Z,98259.16
2022-09-14T03:26:38.192Z,98263.39
2022-09-14T03:27:10.051Z,98263.60
2022-09-14T03:27:41.865Z,98261.73
2022-09-14T03:28:13.654Z,98259.05
2022-09-14T03:28:50.541Z,98258.52
2022-09-14T03:29:22.237Z,98259.71
2022-09-14T03:29:53.974Z,98259.34
2022-09-14T03:30:27.384Z,98257.07
2022-09-14T03:31:04.454Z,98261.34
2022-09-14T03:31:36.402Z,98260.23
2022-09-14T03:32:10.498Z,98258.50
2022-09-14T03:32:42.331Z,98258.84
2022-09-14T03:33:15.023Z,98256.70
2022-09-14T03:33:47.408Z,98258.27
2022-09-14T03:34:19.024Z,98255.42
2022-09-14T03:34:50.754Z,98255.10
2022-09-14T03:35:22.669Z,98255.84
2022-09-14T03:35:54.435Z,98254.52
2022-09-14T03:36:28.291Z,98255.73
2022-09-14T03:37:00.244Z,98250.45
2022-09-14T03:37:31.917Z,98253.49
2022-09-14T03:38:03.640Z,98253.30
2022-09-14T03:38:35.333Z,98252.97
2022-09-14T03:39:06.988Z,98248.42
2022-09-14T03:39:38.850Z,98250.58
2022-09-14T03:40:13.021Z,98249.96
2022-09-14T03:40:45.127Z,98254.52
2022-09-14T03:41:18.257Z,98256.73
2022-09-14T03:41:49.990Z,98253.91
2022-09-14T03:42:22.412Z,98256.67
2022-09-14T03:42:54.849Z,98251.46
2022-09-14T03:43:27.076Z,98256.30
2022-09-14T03:43:58.761Z,98256.98
2022-09-14T03:44:30.450Z,98257.59
2022-09-14T03:45:03.391Z,98259.83
2022-09-14T03:45:36.708Z,98257.02
2022-09-14T03:46:10.815Z,98259.79
2022-09-14T03:46:43.994Z,98260.80
2022-09-14T03:47:15.706Z,98262.86
2022-09-14T03:47:48.340Z,98263.71
2022-09-14T03:48:19.979Z,98259.33
2022-09-14T03:48:53.890Z,98261.33
2022-09-14T03:49:25.552Z,98265.46
2022-09-14T03:49:57.607Z,98264.09
2022-09-14T03:50:29.424Z,98263.72
2022-09-14T03:51:02.974Z,98263.50
2022-09-14T03:51:34.780Z,98264.73
2022-09-14T03:52:07.654Z,98262.45
2022-09-14T03:52:40.110Z,98263.77
2022-09-14T03:53:11.813Z,98265.88
2022-09-14T03:53:44.829Z,98266.73
2022-09-14T03:54:16.628Z,98268.30
2022-09-14T03:54:48.376Z,98266.73
2022-09-14T03:55:20.128Z,98270.91
2022-09-14T03:55:51.902Z,98269.36
2022-09-14T03:56:23.800Z,98269.96
2022-09-14T03:56:55.686Z,98271.59
2022-09-14T03:57:27.875Z,98273.88
2022-09-14T03:57:59.759Z,98275.30
2022-09-14T03:58:31.896Z,98275.09
2022-09-14T03:59:04.330Z,98274.08
2022-09-14T03:59:39.408Z,98274.48
2022-09-14T04:00:14.656Z,98274.02
2022-09-14T04:00:46.456Z,98281.10
2022-09-14T04:01:21.264Z,98275.91
2022-09-14T04:01:53.300Z,98277.13
2022-09-14T04:02:25.627Z,98277.96
2022-09-14T04:03:00.169Z,98273.04
2022-09-14T04:03:32.758Z,98275.48
2022-09-14T04:04:04.605Z,98274.99
2022-09-14T04:04:36.304Z,98275.87
2022-09-14T04:05:08.401Z,98278.80
2022-09-14T04:05:40.295Z,98281.89
2022-09-14T04:06:13.683Z,98281.18
2022-09-14T04:06:45.728Z,98279.98
2022-09-14T04:07:17.685Z,98281.99
2022-09-14T04:07:49.521Z,98284.59
2022-09-14T04:08:22.396Z,98281.66
2022-09-14T04:08:54.995Z,98283.09
2022-09-14T04:09:26.682Z,98282.02
2022-09-14T04:09:58.349Z,98282.75
2022-09-14T04:10:30.248Z,98282.23
2022-09-14T04:11:11.693Z,98283.98
2022-09-14T04:11:43.404Z,98283.77
2022-09-14T04:12:15.120Z,98281.13
2022-09-14T04:12:46.870Z,98286.46
2022-09-14T04:13:18.620Z,98282.71
2022-09-14T04:13:51.163Z,98283.59
2022-09-14T04:14:23.537Z,98281.96
2022-09-14T04:14:55.437Z,98287.88
2022-09-14T04:15:27.829Z,98287.36
2022-09-14T04:16:00.253Z,98283.58
2022-09-14T04:16:32.259Z,98288.33
2022-09-14T04:17:04.410Z,98286.26
2022-09-14T04:17:36.504Z,98289.96
2022-09-14T04:18:08.627Z,98284.71
2022-09-14T04:18:40.431Z,98280.69
2022-09-14T04:19:12.704Z,98283.25
2022-09-14T04:19:44.535Z,98285.64
2022-09-14T04:20:17.846Z,98286.21
2022-09-14T04:21:04.605Z,98285.80
2022-09-14T04:21:39.257Z,98288.57
2022-09-14T04:22:11.188Z,98287.33
2022-09-14T04:22:43.214Z,98289.20
2022-09-14T04:23:14.886Z,98290.12
2022-09-14T04:24:12.694Z,98288.08
2022-09-14T04:24:38.945Z,98287.91
2022-09-14T04:25:11.082Z,98286.80
2022-09-14T04:25:43.021Z,98281.39
2022-09-14T04:26:18.871Z,98278.43
2022-09-14T04:26:50.723Z,98277.92
2022-09-14T04:27:22.992Z,98281.10
2022-09-14T04:28:16.839Z,98276.44
2022-09-14T04:28:47.055Z,98272.80
2022-09-14T04:29:19.261Z,98276.65
2022-09-14T04:29:51.022Z,98276.76
2022-09-14T04:30:22.995Z,98274.59
2022-09-14T04:31:02.062Z,98277.35
2022-09-14T04:31:33.844Z,98273.55
2022-09-14T04:32:06.649Z,98270.26
2022-09-14T04:32:38.397Z,98275.94
2022-09-14T04:33:10.253Z,98270.81
2022-09-14T04:33:43.789Z,98271.52
2022-09-14T04:34:15.822Z,98272.58
2022-09-14T04:34:48.356Z,98270.65
2022-09-14T04:35:20.127Z,98269.79
2022-09-14T04:36:05.041Z,98271.19
2022-09-14T04:36:36.823Z,98270.81
2022-09-14T04:37:08.617Z,98273.05
2022-09-14T04:37:40.388Z,98269.25
2022-09-14T04:38:12.244Z,98268.96
2022-09-14T04:38:44.816Z,98271.31
2022-09-14T04:39:16.711Z,98268.45
2022-09-14T04:39:48.454Z,98266.00
2022-09-14T04:40:21.592Z,98266.77
2022-09-14T04:40:53.339Z,98267.73
2022-09-14T04:41:26.139Z,98266.85
2022-09-14T04:41:58.081Z,98266.06
2022-09-14T04:42:31.027Z,98268.73
2022-09-14T04:43:03.692Z,98265.27
2022-09-14T04:43:35.878Z,98264.85
2022-09-14T04:44:07.608Z,98269.20
2022-09-14T04:44:39.503Z,98263.21
2022-09-14T04:45:11.139Z,98269.80
2022-09-14T04:45:42.845Z,98272.77
2022-09-14T04:46:20.367Z,98268.52
2022-09-14T04:46:52.635Z,98268.47
2022-09-14T04:47:24.574Z,98269.16
2022-09-14T04:47:56.278Z,98269.16
2022-09-14T04:48:33.105Z,98269.59
2022-09-14T04:49:06.340Z,98264.67
2022-09-14T04:49:38.086Z,98267.48
2022-09-14T04:50:09.813Z,98264.92
2022-09-14T04:50:43.134Z,98271.50
2022-09-14T04:51:20.518Z,98269.67
2022-09-14T04:51:52.287Z,98268.88
2022-09-14T04:52:24.389Z,98263.25
2022-09-14T04:52:56.167Z,98265.18
2022-09-14T04:53:28.013Z,98270.08
2022-09-14T04:54:01.431Z,98272.15
2022-09-14T04:54:33.436Z,98271.48
2022-09-14T04:55:06.800Z,98272.77
2022-09-14T04:55:38.495Z,98272.64
2022-09-14T04:56:12.515Z,98271.54
2022-09-14T04:56:45.226Z,98271.18
2022-09-14T04:57:16.924Z,98274.00
2022-09-14T04:57:49.012Z,98272.16
2022-09-14T04:58:20.646Z,98271.95
2022-09-14T04:58:55.449Z,98275.40
2022-09-14T04:59:27.197Z,98274.66
2022-09-14T04:59:58.862Z,98270.75
2022-09-14T05:00:33.681Z,98273.56
2022-09-14T05:01:16.959Z,98269.67
2022-09-14T05:01:49.166Z,98270.26
2022-09-14T05:02:22.752Z,98271.52
2022-09-14T05:02:54.787Z,98267.61
2022-09-14T05:03:26.539Z,98268.09
2022-09-14T05:03:58.632Z,98268.41
2022-09-14T05:04:30.460Z,98264.83
2022-09-14T05:05:02.258Z,98266.09
2022-09-14T05:05:36.273Z,98269.14
2022-09-14T05:06:11.305Z,98269.30
2022-09-14T05:06:43.984Z,98272.21
2022-09-14T05:07:16.148Z,98270.95
2022-09-14T05:07:47.940Z,98274.43
2022-09-14T05:08:19.611Z,98273.02
2022-09-14T05:08:52.396Z,98269.56
2022-09-14T05:09:24.205Z,98272.94
2022-09-14T05:09:56.107Z,98271.68
2022-09-14T05:10:27.931Z,98267.70
2022-09-14T05:10:59.744Z,98267.49
2022-09-14T05:11:33.949Z,98270.36
2022-09-14T05:12:05.913Z,98272.30
2022-09-14T05:12:37.767Z,98271.49
2022-09-14T05:13:09.440Z,98271.42
2022-09-14T05:13:43.381Z,98276.59
2022-09-14T05:14:18.156Z,98274.02
2022-09-14T05:14:50.292Z,98272.39
2022-09-14T05:15:21.961Z,98274.86
2022-09-14T05:15:54.107Z,98274.38
2022-09-14T05:16:34.801Z,98274.33
2022-09-14T05:17:06.413Z,98273.85
2022-09-14T05:17:38.159Z,98277.27
2022-09-14T05:18:10.351Z,98275.86
2022-09-14T05:18:43.699Z,98279.67
2022-09-14T05:19:17.806Z,98278.98
2022-09-14T05:19:49.581Z,98271.38
2022-09-14T05:20:21.536Z,98273.54
2022-09-14T05:20:53.300Z,98279.20
2022-09-14T05:21:25.470Z,98276.11
2022-09-14T05:21:57.312Z,98274.15
2022-09-14T05:22:29.079Z,98274.46
2022-09-14T05:23:00.743Z,98272.86
2022-09-14T05:23:33.646Z,98269.95
2022-09-14T05:24:12.080Z,98271.16
2022-09-14T05:24:43.859Z,98266.56
2022-09-14T05:25:15.688Z,98266.45
2022-09-14T05:25:52.942Z,98263.96
2022-09-14T05:26:26.197Z,98265.35
2022-09-14T05:27:00.955Z,98262.48
2022-09-14T05:27:33.983Z,98263.48
2022-09-14T05:28:05.809Z,98263.90
2022-09-14T05:28:37.907Z,98263.95
2022-09-14T05:29:13.403Z,98263.42
2022-09-14T05:29:45.334Z,98262.13
2022-09-14T05:30:17.368Z,98263.80
2022-09-14T05:30:49.158Z,98260.15
2022-09-14T05:31:23.359Z,98262.02
2022-09-14T05:31:55.532Z,98265.30
2022-09-14T05:32:27.489Z,98260.86
2022-09-14T05:32:59.284Z,98265.45
2022-09-14T05:33:31.242Z,98266.41
2022-09-14T05:34:03.124Z,98262.77
2022-09-14T05:34:34.797Z,98265.84
2022-09-14T05:35:06.915Z,98265.89
2022-09-14T05:35:38.718Z,98266.45
2022-09-14T05:36:10.513Z,98268.75
2022-09-14T05:36:42.322Z,98269.49
2022-09-14T05:37:14.074Z,98268.84
2022-09-14T05:37:46.054Z,98269.92
2022-09-14T05:38:18.110Z,98270.19
2022-09-14T05:38:50.488Z,98272.16
2022-09-14T05:39:24.673Z,98272.20
2022-09-14T05:39:56.561Z,98268.69
2022-09-14T05:40:28.349Z,98266.50
2022-09-14T05:41:00.145Z,98267.67
2022-09-14T05:41:32.078Z,98267.58
2022-09-14T05:42:04.171Z,98266.05
2022-09-14T05:42:36.159Z,98267.21
2022-09-14T05:43:08.909Z,98269.42
2022-09-14T05:43:41.466Z,98266.69
2022-09-14T05:44:13.215Z,98268.64
2022-09-14T05:44:45.020Z,98274.08
2022-09-14T05:45:16.777Z,98273.78
2022-09-14T05:45:49.422Z,98273.41
2022-09-14T05:46:21.698Z,98274.38
2022-09-14T05:46:53.553Z,98276.86
2022-09-14T05:47:25.313Z,98275.56
2022-09-14T05:48:01.527Z,98275.00
2022-09-14T05:48:35.263Z,98272.16
2022-09-14T05:49:07.069Z,98268.06
2022-09-14T05:49:38.834Z,98271.14
2022-09-14T05:50:10.496Z,98271.92
2022-09-14T05:50:42.627Z,98272.33
2022-09-14T05:51:16.915Z,98274.70
2022-09-14T05:51:48.664Z,98276.27
2022-09-14T05:52:21.562Z,98272.11
2022-09-14T05:52:54.956Z,98274.54
2022-09-14T05:53:27.591Z,98272.29
2022-09-14T05:54:00.526Z,98272.33
2022-09-14T05:54:32.233Z,98271.56
2022-09-14T05:55:04.459Z,98272.91
2022-09-14T05:55:36.290Z,98271.80
2022-09-14T05:56:13.180Z,98275.48
2022-09-14T05:56:45.260Z,98273.84
2022-09-14T05:57:17.132Z,98272.14
2022-09-14T05:57:50.116Z,98272.97
2022-09-14T05:58:21.965Z,98276.46
2022-09-14T05:58:54.228Z,98275.19
2022-09-14T05:59:25.879Z,98269.71
2022-09-14T05:59:57.940Z,98274.05
2022-09-14T06:00:30.907Z,98270.51
2022-09-14T06:01:24.430Z,98273.11
2022-09-14T06:01:56.461Z,98272.34
2022-09-14T06:02:28.425Z,98272.77
2022-09-14T06:03:00.296Z,98270.05
2022-09-14T06:03:31.932Z,98273.89
2022-09-14T06:04:03.746Z,98275.11
2022-09-14T06:04:35.777Z,98271.32
2022-09-14T06:05:07.812Z,98269.81
2022-09-14T06:05:39.673Z,98270.67
2022-09-14T06:06:13.602Z,98271.73
2022-09-14T06:06:56.136Z,98269.99
2022-09-14T06:07:37.832Z,98268.39
2022-09-14T06:08:09.586Z,98268.54
2022-09-14T06:08:42.309Z,98268.75
2022-09-14T06:09:15.751Z,98263.82
2022-09-14T06:09:47.516Z,98262.81
2022-09-14T06:10:20.801Z,98261.48
2022-09-14T06:10:53.023Z,98259.42
2022-09-14T06:11:30.593Z,98259.02
2022-09-14T06:12:02.429Z,98258.55
2022-09-14T06:12:34.560Z,98257.86
2022-09-14T06:13:06.362Z,98260.39
2022-09-14T06:13:38.423Z,98261.48
2022-09-14T06:14:10.374Z,98260.67
2022-09-14T06:14:41.985Z,98264.98
2022-09-14T06:15:13.852Z,98262.95
2022-09-14T06:15:45.497Z,98266.91
2022-09-14T06:16:19.421Z,98263.64
2022-09-14T06:16:51.208Z,98264.06
2022-09-14T06:17:23.125Z,98265.70
2022-09-14T06:17:55.414Z,98262.98
2022-09-14T06:18:30.334Z,98258.98
2022-09-14T06:19:02.227Z,98257.17
2022-09-14T06:19:34.202Z,98258.27
2022-09-14T06:20:09.624Z,98260.52
2022-09-14T06:20:50.914Z,98258.23
2022-09-14T06:21:26.832Z,98257.30
2022-09-14T06:21:58.616Z,98255.19
2022-09-14T06:22:31.552Z,98257.05
2022-09-14T06:23:03.293Z,98254.95
2022-09-14T06:23:36.241Z,98255.96
2022-09-14T06:24:11.992Z,98256.17
2022-09-14T06:24:43.731Z,98257.65
2022-09-14T06:25:15.529Z,98258.25
2022-09-14T06:25:47.203Z,98261.45
2022-09-14T06:26:19.515Z,98259.67
2022-09-14T06:26:51.329Z,98260.90
2022-09-14T06:27:23.511Z,98261.15
2022-09-14T06:27:55.294Z,98260.70
2022-09-14T06:28:28.671Z,98263.20
2022-09-14T06:29:00.428Z,98260.26
2022-09-14T06:29:32.153Z,98261.44
2022-09-14T06:30:05.308Z,98265.68
2022-09-14T06:30:36.936Z,98264.50
2022-09-14T06:31:12.274Z,98264.67
2022-09-14T06:31:44.044Z,98260.80
2022-09-14T06:32:16.263Z,98263.80
2022-09-14T06:32:48.043Z,98266.15
2022-09-14T06:33:20.410Z,98265.09
2022-09-14T06:33:52.538Z,98267.67
2022-09-14T06:34:24.306Z,98264.08
2022-09-14T06:34:56.089Z,98264.98
2022-09-14T06:35:27.870Z,98267.23
2022-09-14T06:36:12.194Z,98263.55
2022-09-14T06:36:45.007Z,98266.59
2022-09-14T06:37:16.746Z,98260.29
2022-09-14T06:37:48.488Z,98264.39
2022-09-14T06:38:20.494Z,98267.33
2022-09-14T06:38:53.221Z,98266.33
2022-09-14T06:39:25.164Z,98266.13
2022-09-14T06:39:57.025Z,98266.80
2022-09-14T06:40:29.149Z,98269.77
2022-09-14T06:41:06.021Z,98270.41
2022-09-14T06:41:37.842Z,98264.91
2022-09-14T06:42:09.749Z,98268.21
2022-09-14T06:42:41.704Z,98270.08
2022-09-14T06:43:13.417Z,98266.98
2022-09-14T06:43:45.738Z,98269.48
2022-09-14T06:44:17.920Z,98267.05
2022-09-14T06:44:49.596Z,98268.02
2022-09-14T06:45:21.353Z,98274.29
2022-09-14T06:46:00.417Z,98270.69
2022-09-14T06:46:33.657Z,98269.04
2022-09-14T06:47:06.619Z,98273.63
2022-09-14T06:47:38.358Z,98274.80
2022-09-14T06:48:10.222Z,98271.24
2022-09-14T06:48:46.125Z,98273.64
2022-09-14T06:49:20.384Z,98270.84
2022-09-14T06:49:52.208Z,98275.48
2022-09-14T06:50:24.845Z,98273.53
2022-09-14T06:50:56.892Z,98276.08
2022-09-14T06:51:30.176Z,98273.52
2022-09-14T06:52:02.088Z,98277.98
2022-09-14T06:52:36.024Z,98274.09
2022-09-14T06:53:07.784Z,98274.80